Time;durP1;ratioP1;P1;durP2;ratioP2;P2;SDS_P1;SDS_P2;PMS_P1;PMS_P2;Temp;Humidity;BMP_temperature;BMP_pressure;BME280_temperature;BME280_humidity;BME280_pressure;Samples;Min_cycle;Max_cycle;Signal;HPM_P1;HPM_P2
2022/11/24 00:01:24;;;;;;;29.93;13.97;;;;;;;;;;5014312;28;20515;-71
2022/11/24 00:03:55;;;;;;;28.67;13.27;;;;;;;;;;5030880;28;20534;-72
2022/11/24 00:06:21;;;;;;;26.48;13.20;;;;;;;;;;5001884;28;20421;-72
2022/11/24 00:08:47;;;;;;;29.02;13.00;;;;;;;;;;5029451;28;20918;-72
2022/11/24 00:11:15;;;;;;;24.35;12.48;;;;;;;;;;5032290;28;20415;-72
2022/11/24 00:13:43;;;;;;;26.33;12.35;;;;;;;;;;5028898;28;20419;-72
2022/11/24 00:16:11;;;;;;;31.77;12.53;;;7.70;99.90;;;;;;5022997;28;20423;-72
2022/11/24 00:18:38;;;;;;;27.50;12.35;;;;;;;;;;5033462;28;20797;-72
2022/11/24 00:21:04;;;;;;;26.45;12.18;;;;;;;;;;5029807;28;20451;-72
2022/11/24 00:23:30;;;;;;;30.70;11.85;;;;;;;;;;5029324;28;20802;-79
2022/11/24 00:26:02;;;;;;;30.40;11.80;;;;;;;;;;5011592;28;20435;-78
2022/11/24 00:28:28;;;;;;;28.30;12.20;;;;;;;;;;5027607;28;20408;-79
2022/11/24 00:30:54;;;;;;;28.85;11.57;;;;;;;;;;5013258;28;20435;-78
2022/11/24 00:33:20;;;;;;;28.95;11.32;;;;;;;;;;5015836;28;20925;-78
2022/11/24 00:35:53;;;;;;;31.90;11.95;;;;;;;;;;5028975;28;20449;-78
2022/11/24 00:38:19;;;;;;;28.97;12.47;;;;;;;;;;5031385;28;20414;-80
2022/11/24 00:40:45;;;;;;;30.65;12.13;;;;;;;;;;5028631;28;20510;-78
2022/11/24 00:43:11;;;;;;;28.85;11.60;;;;;;;;;;5015500;28;20408;-79
2022/11/24 00:45:37;;;;;;;26.33;11.30;;;;;;;;;;5027409;28;20605;-78
2022/11/24 00:48:03;;;;;;;30.50;10.80;;;;;;;;;;5030188;28;20414;-79
2022/11/24 00:50:29;;;;;;;27.00;10.45;;;;;;;;;;5024229;28;20457;-78
2022/11/24 00:52:55;;;;;;;27.90;10.50;;;;;;;;;;5015843;28;20503;-79
2022/11/24 00:55:21;;;;;;;29.42;10.48;;;;;;;;;;5028983;28;20424;-78
2022/11/24 00:57:47;;;;;;;28.30;9.90;;;;;;;;;;5029763;28;20427;-78
2022/11/24 01:00:14;;;;;;;29.63;9.55;;;;;;;;;;5030697;28;20478;-78
2022/11/24 01:02:40;;;;;;;26.08;9.35;;;;;;;;;;5028667;28;20419;-77
2022/11/24 01:05:06;;;;;;;28.85;8.75;;;;;;;;;;5024986;28;20426;-78
2022/11/24 01:07:32;;;;;;;25.85;8.60;;;;;;;;;;4996854;28;20423;-78
2022/11/24 01:09:58;;;;;;;27.85;9.77;;;;;;;;;;5012221;28;20497;-80
2022/11/24 01:12:24;;;;;;;28.05;8.55;;;;;;;;;;5020843;28;20760;-78
2022/11/24 01:14:50;;;;;;;27.92;9.10;;;;;;;;;;5029879;28;20422;-79
2022/11/24 01:17:16;;;;;;;26.70;9.05;;;;;;;;;;5013464;28;20423;-78
2022/11/24 01:19:43;;;;;;;26.85;8.45;;;;;;;;;;5009029;28;20994;-78
2022/11/24 01:22:09;;;;;;;28.08;8.48;;;;;;;;;;5028733;28;20445;-77
2022/11/24 01:24:35;;;;;;;31.57;8.37;;;;;;;;;;5028392;28;20525;-78
2022/11/24 01:27:01;;;;;;;25.10;8.02;;;;;;;;;;4998603;28;20420;-71
2022/11/24 01:29:27;;;;;;;27.60;8.30;;;;;;;;;;5008225;28;20498;-73
2022/11/24 01:31:53;;;;;;;24.83;7.72;;;;;;;;;;5014770;28;20414;-73
2022/11/24 01:34:19;;;;;;;26.90;7.90;;;;;;;;;;5027154;28;20430;-72
2022/11/24 01:36:45;;;;;;;30.20;7.68;;;;;;;;;;5029783;28;20506;-72
2022/11/24 01:39:12;;;;;;;26.65;7.97;;;;;;;;;;5015295;28;20431;-72
2022/11/24 01:41:38;;;;;;;25.23;7.45;;;;;;;;;;5011483;28;20427;-72
2022/11/24 01:44:20;;;;;;;23.10;7.85;;;7.50;99.90;;;;;;5006941;28;20423;-72
2022/11/24 01:46:51;;;;;;;24.45;7.60;;;7.60;99.90;;;;;;5028389;28;20427;-72
2022/11/24 01:49:20;;;;;;;28.23;7.47;;;;;;;;;;5028975;28;20419;-72
2022/11/24 01:51:55;;;;;;;30.30;8.02;;;;;;;;;;5011164;28;20438;-72
2022/11/24 01:54:32;;;;;;;23.60;7.15;;;;;;;;;;5024798;28;20455;-72
2022/11/24 01:57:02;;;;;;;28.00;7.45;;;;;;;;;;5012760;28;20424;-72
2022/11/24 01:59:28;;;;;;;26.48;7.57;;;;;;;;;;5014020;28;20433;-72
2022/11/24 02:01:55;;;;;;;29.23;7.15;;;7.60;99.90;;;;;;4999048;28;20427;-72
2022/11/24 02:04:24;;;;;;;25.37;7.13;;;;;;;;;;5011592;28;20518;-72
2022/11/24 02:06:53;;;;;;;29.23;7.30;;;7.50;99.90;;;;;;5017616;28;20559;-72
2022/11/24 02:09:22;;;;;;;24.25;6.30;;;;;;;;;;5022269;28;20436;-72
2022/11/24 02:11:48;;;;;;;28.58;7.40;;;;;;;;;;5028816;28;20500;-72
2022/11/24 02:14:16;;;;;;;25.47;6.60;;;;;;;;;;5027245;28;20429;-72
2022/11/24 02:16:43;;;;;;;23.27;6.18;;;;;;;;;;5013806;28;20435;-72
2022/11/24 02:19:16;;;;;;;27.40;6.45;;;;;;;;;;5012181;28;20431;-72
2022/11/24 02:21:42;;;;;;;20.60;5.97;;;;;;;;;;5029178;28;20427;-72
2022/11/24 02:24:28;;;;;;;23.60;6.18;;;;;;;;;;5010761;28;20945;-72
2022/11/24 02:26:54;;;;;;;24.02;6.43;;;;;;;;;;4975444;28;20453;-73
2022/11/24 02:29:20;;;;;;;25.08;6.30;;;;;;;;;;5004381;28;20751;-72
2022/11/24 02:32:00;;;;;;;24.85;8.05;;;;;;;;;;5029202;28;20435;-72
2022/11/24 02:34:26;;;;;;;24.40;5.85;;;;;;;;;;5023963;28;20544;-72
2022/11/24 02:36:52;;;;;;;24.60;6.47;;;;;;;;;;5001314;28;20434;-72
2022/11/24 02:39:18;;;;;;;24.55;6.13;;;;;;;;;;5011896;28;20454;-72
2022/11/24 02:41:49;;;;;;;23.83;6.35;;;;;;;;;;5054326;28;20423;-72
2022/11/24 02:44:16;;;;;;;26.42;6.85;;;;;;;;;;5027770;28;20501;-72
2022/11/24 02:46:42;;;;;;;27.10;6.10;;;;;;;;;;5012794;28;20840;-71
2022/11/24 02:49:08;;;;;;;28.23;6.13;;;;;;;;;;5007628;28;20758;-71
2022/11/24 02:51:34;;;;;;;20.67;5.82;;;;;;;;;;5004581;28;20434;-71
2022/11/24 02:54:00;;;;;;;20.23;5.72;;;;;;;;;;4989200;28;20524;-71
2022/11/24 02:56:26;;;;;;;23.58;5.97;;;;;;;;;;5029721;28;20431;-71
2022/11/24 02:58:53;;;;;;;28.83;6.32;;;;;;;;;;5027564;28;20450;-72
2022/11/24 03:01:19;;;;;;;26.25;6.80;;;;;;;;;;5024588;28;20430;-71
2022/11/24 03:03:45;;;;;;;22.83;5.27;;;;;;;;;;5030884;28;20461;-72
2022/11/24 03:06:11;;;;;;;22.38;5.65;;;;;;;;;;5024125;28;20422;-72
2022/11/24 03:08:37;;;;;;;21.05;5.43;;;;;;;;;;5027933;28;20437;-72
2022/11/24 03:11:03;;;;;;;23.67;5.68;;;;;;;;;;5027454;28;20494;-73
2022/11/24 03:13:29;;;;;;;20.10;5.32;;;;;;;;;;5025879;28;20503;-73
2022/11/24 03:15:55;;;;;;;22.30;5.75;;;;;;;;;;5026347;28;20427;-73
2022/11/24 03:18:21;;;;;;;20.30;6.10;;;;;;;;;;5028287;28;20441;-73
2022/11/24 03:20:47;;;;;;;19.83;5.40;;;;;;;;;;4996436;28;20430;-73
2022/11/24 03:23:13;;;;;;;19.05;5.03;;;;;;;;;;4992999;28;20452;-73
2022/11/24 03:25:39;;;;;;;26.40;5.40;;;;;;;;;;5034679;28;20558;-80
2022/11/24 03:28:05;;;;;;;20.90;5.18;;;;;;;;;;5050977;28;20415;-79
2022/11/24 03:30:31;;;;;;;24.13;5.25;;;;;;;;;;5053009;28;20411;-80
2022/11/24 03:32:57;;;;;;;23.77;5.63;;;;;;;;;;5032683;28;21014;-79
2022/11/24 03:35:24;;;;;;;23.48;5.20;;;;;;;;;;5070949;28;20396;-79
2022/11/24 03:37:50;;;;;;;28.30;5.80;;;;;;;;;;5034383;28;20443;-79
2022/11/24 03:40:17;;;;;;;23.42;5.38;;;;;;;;;;5036344;28;20532;-79
2022/11/24 03:42:43;;;;;;;18.45;4.78;;;;;;;;;;5032760;28;20533;-79
2022/11/24 03:45:09;;;;;;;22.30;5.07;;;;;;;;;;5052706;28;20419;-79
2022/11/24 03:47:35;;;;;;;21.17;4.90;;;;;;;;;;5051444;28;20904;-79
2022/11/24 03:50:01;;;;;;;23.05;4.75;;;;;;;;;;5035570;28;20767;-79
2022/11/24 03:52:27;;;;;;;19.65;4.85;;;;;;;;;;5056138;28;21070;-79
2022/11/24 03:54:53;;;;;;;21.57;5.13;;;;;;;;;;5056924;28;20891;-80
2022/11/24 03:57:19;;;;;;;20.05;4.80;;;;;;;;;;5018965;28;20421;-79
2022/11/24 03:59:45;;;;;;;17.65;4.63;;;;;;;;;;5067942;28;20419;-80
2022/11/24 04:02:11;;;;;;;17.23;4.50;;;;;;;;;;5051133;28;20425;-79
2022/11/24 04:04:37;;;;;;;22.60;4.93;;;;;;;;;;5035948;28;20417;-79
2022/11/24 04:07:03;;;;;;;23.60;4.72;;;;;;;;;;5062522;28;20419;-80
2022/11/24 04:09:29;;;;;;;20.90;4.65;;;;;;;;;;5039550;28;20427;-80
2022/11/24 04:14:40;;;;;;;23.52;4.65;;;;;;;;;;5035660;28;20480;-79
2022/11/24 04:17:06;;;;;;;20.33;5.03;;;;;;;;;;5044360;28;20774;-80
2022/11/24 04:19:32;;;;;;;18.23;4.40;;;;;;;;;;5055577;28;20451;-79
2022/11/24 04:21:58;;;;;;;23.75;5.20;;;;;;;;;;5039686;28;20424;-78
2022/11/24 04:24:24;;;;;;;18.85;4.05;;;;;;;;;;5055378;28;20419;-79
2022/11/24 04:26:50;;;;;;;24.33;5.23;;;;;;;;;;5054786;28;20438;-80
2022/11/24 04:29:16;;;;;;;27.17;5.00;;;;;;;;;;5072473;28;20439;-78
2022/11/24 04:31:42;;;;;;;18.73;4.72;;;;;;;;;;5056224;28;20435;-78
2022/11/24 04:34:08;;;;;;;20.53;5.00;;;;;;;;;;5035922;28;20562;-78
2022/11/24 04:36:34;;;;;;;19.45;4.82;;;;;;;;;;5021005;28;20427;-78
2022/11/24 04:39:00;;;;;;;20.70;4.70;;;;;;;;;;5047826;28;20424;-78
2022/11/24 04:41:27;;;;;;;20.03;5.00;;;;;;;;;;5069568;28;20423;-79
2022/11/24 04:43:53;;;;;;;20.17;4.80;;;;;;;;;;5071425;28;20413;-79
2022/11/24 04:46:19;;;;;;;22.50;4.75;;;;;;;;;;5073227;28;20396;-78
2022/11/24 04:48:45;;;;;;;18.63;4.73;;;;;;;;;;5071552;28;20908;-79
2022/11/24 04:51:13;;;;;;;20.05;5.18;;;7.50;99.90;;;;;;5061449;28;20425;-78
2022/11/24 04:53:39;;;;;;;19.27;4.80;;;;;;;;;;5059474;28;20431;-78
2022/11/24 04:56:05;;;;;;;20.48;4.72;;;;;;;;;;5053105;28;20443;-78
2022/11/24 04:58:32;;;;;;;20.73;4.63;;;;;;;;;;5069301;28;20487;-78
2022/11/24 05:00:58;;;;;;;18.52;4.40;;;;;;;;;;5064819;28;20423;-80
2022/11/24 05:03:24;;;;;;;23.20;4.30;;;;;;;;;;5059902;28;20419;-78
2022/11/24 05:05:50;;;;;;;19.75;4.70;;;;;;;;;;5045055;28;20416;-78
2022/11/24 05:08:16;;;;;;;22.85;5.95;;;;;;;;;;5054563;28;20585;-78
2022/11/24 05:10:42;;;;;;;25.40;5.03;;;;;;;;;;5051855;28;20972;-79
2022/11/24 05:13:12;;;;;;;19.63;4.40;;;;;;;;;;5054875;28;20455;-78
2022/11/24 05:15:39;;;;;;;21.63;4.60;;;7.30;99.90;;;;;;5055397;28;20767;-78
2022/11/24 05:18:11;;;;;;;20.07;4.83;;;;;;;;;;5045876;28;20532;-80
2022/11/24 05:20:37;;;;;;;18.60;4.30;;;;;;;;;;5053561;28;20424;-77
2022/11/24 05:23:04;;;;;;;21.83;5.73;;;;;;;;;;5051859;28;20423;-78
2022/11/24 05:25:30;;;;;;;22.60;5.22;;;;;;;;;;5029129;28;20466;-78
2022/11/24 05:28:02;;;;;;;22.10;4.65;;;7.00;99.90;;;;;;5054622;28;20420;-78
2022/11/24 05:30:29;;;;;;;21.23;4.78;;;;;;;;;;5037488;28;20448;-79
2022/11/24 05:32:55;;;;;;;20.58;4.60;;;;;;;;;;5054248;28;20411;-79
2022/11/24 05:35:22;;;;;;;20.25;4.95;;;;;;;;;;5044074;28;20411;-80
2022/11/24 05:37:48;;;;;;;21.80;4.80;;;;;;;;;;5052761;28;20806;-80
2022/11/24 05:40:14;;;;;;;23.63;5.15;;;;;;;;;;5049294;28;20447;-80
2022/11/24 05:42:40;;;;;;;19.70;4.60;;;;;;;;;;5065805;28;20442;-79
2022/11/24 05:45:10;;;;;;;21.02;4.80;;;;;;;;;;5033776;28;21014;-80
2022/11/24 05:47:36;;;;;;;18.33;4.47;;;;;;;;;;5050956;28;20422;-80
2022/11/24 05:50:03;;;;;;;22.67;4.95;;;;;;;;;;5034322;28;20934;-81
2022/11/24 05:52:29;;;;;;;22.60;4.80;;;;;;;;;;5052351;28;20450;-79
2022/11/24 05:54:55;;;;;;;20.80;5.07;;;;;;;;;;5049566;28;20521;-80
2022/11/24 05:57:21;;;;;;;19.98;4.53;;;;;;;;;;5036267;28;20434;-80
2022/11/24 05:59:47;;;;;;;21.38;4.78;;;;;;;;;;5045413;28;20920;-79
2022/11/24 06:02:13;;;;;;;21.30;5.07;;;;;;;;;;5035430;28;20419;-79
2022/11/24 06:04:39;;;;;;;17.33;4.50;;;;;;;;;;5051543;28;20506;-79
2022/11/24 06:07:10;;;;;;;24.10;4.18;;;;;;;;;;5033929;28;20445;-79
2022/11/24 06:09:36;;;;;;;15.45;4.18;;;;;;;;;;5065259;28;20431;-79
2022/11/24 06:12:03;;;;;;;21.15;4.20;;;;;;;;;;5047499;28;20448;-80
2022/11/24 06:14:29;;;;;;;18.20;4.30;;;;;;;;;;5048182;28;20455;-79
2022/11/24 06:16:55;;;;;;;20.15;5.07;;;;;;;;;;5012898;28;20429;-78
2022/11/24 06:19:21;;;;;;;18.70;4.20;;;;;;;;;;5045681;28;20419;-79
2022/11/24 06:21:47;;;;;;;28.67;5.70;;;;;;;;;;5032865;28;20430;-78
2022/11/24 06:24:13;;;;;;;21.52;5.47;;;;;;;;;;5063352;28;20432;-79
2022/11/24 06:26:40;;;;;;;15.10;4.03;;;;;;;;;;5044335;28;20514;-79
2022/11/24 06:29:06;;;;;;;18.40;4.53;;;;;;;;;;5040683;28;20771;-81
2022/11/24 06:31:32;;;;;;;13.85;3.88;;;;;;;;;;5038343;28;20979;-80
2022/11/24 06:33:58;;;;;;;18.77;6.78;;;;;;;;;;5050171;28;20506;-79
2022/11/24 06:36:24;;;;;;;19.65;4.60;;;;;;;;;;5067098;28;20503;-80
2022/11/24 06:38:51;;;;;;;20.20;6.25;;;;;;;;;;5032909;28;20930;-80
2022/11/24 06:41:17;;;;;;;18.20;4.43;;;;;;;;;;5033658;28;20492;-79
2022/11/24 06:43:43;;;;;;;15.43;4.20;;;;;;;;;;5049888;28;20430;-78
2022/11/24 06:46:10;;;;;;;21.58;5.05;;;;;;;;;;5052305;28;20420;-80
2022/11/24 06:48:36;;;;;;;21.40;4.72;;;;;;;;;;5033211;28;20458;-80
2022/11/24 06:51:04;;;;;;;18.93;4.00;;;;;;;;;;5025817;28;20463;-80
2022/11/24 06:53:30;;;;;;;16.50;4.03;;;;;;;;;;5045658;28;20433;-80
2022/11/24 06:56:00;;;;;;;18.88;7.07;;;;;;;;;;5038295;28;20547;-82
2022/11/24 06:58:26;;;;;;;18.50;4.82;;;;;;;;;;5052081;28;20420;-82
2022/11/24 07:00:52;;;;;;;18.93;4.47;;;;;;;;;;5019189;28;20425;-83
2022/11/24 07:03:18;;;;;;;19.50;4.75;;;;;;;;;;5026373;28;20931;-81
2022/11/24 07:05:45;;;;;;;18.08;4.50;;;;;;;;;;5043567;28;20427;-82
2022/11/24 07:08:11;;;;;;;19.08;5.05;;;;;;;;;;5033505;28;20526;-82
2022/11/24 07:10:37;;;;;;;16.67;4.53;;;;;;;;;;5054717;28;20407;-81
2022/11/24 07:13:06;;;;;;;17.30;4.68;;;;;;;;;;5051848;28;20416;-81
2022/11/24 07:15:32;;;;;;;18.20;4.60;;;;;;;;;;5071201;28;20411;-80
2022/11/24 07:17:58;;;;;;;17.45;5.25;;;;;;;;;;5020721;28;20407;-80
2022/11/24 07:20:24;;;;;;;20.33;4.70;;;;;;;;;;5026290;28;20456;-81
2022/11/24 07:22:55;;;;;;;17.52;4.82;;;;;;;;;;5068267;28;20435;-82
2022/11/24 07:25:21;;;;;;;19.83;5.03;;;;;;;;;;5055737;28;20408;-82
2022/11/24 07:27:47;;;;;;;18.55;5.10;;;;;;;;;;5019073;28;20413;-81
2022/11/24 07:30:13;;;;;;;19.23;4.88;;;;;;;;;;5038246;28;20418;-83
2022/11/24 07:32:39;;;;;;;22.02;5.18;;;;;;;;;;5049407;28;20839;-82
2022/11/24 07:35:05;;;;;;;16.70;5.30;;;;;;;;;;5034884;28;20765;-82
2022/11/24 07:37:32;;;;;;;18.05;5.00;;;;;;;;;;5033823;28;20420;-82
2022/11/24 07:39:58;;;;;;;17.47;4.90;;;;;;;;;;5022441;28;20417;-81
2022/11/24 07:42:24;;;;;;;17.33;4.60;;;;;;;;;;5031427;28;20464;-82
2022/11/24 07:44:50;;;;;;;18.90;5.38;;;;;;;;;;5056175;28;20419;-81
2022/11/24 07:47:16;;;;;;;19.67;5.70;;;;;;;;;;5055986;28;20422;-81
2022/11/24 07:49:42;;;;;;;17.13;5.57;;;;;;;;;;5056097;28;20459;-82
2022/11/24 07:52:08;;;;;;;23.42;6.55;;;;;;;;;;5042659;28;20432;-81
2022/11/24 07:54:34;;;;;;;21.08;5.97;;;;;;;;;;5053825;28;20515;-80
2022/11/24 07:57:00;;;;;;;24.90;6.03;;;;;;;;;;5053174;28;20484;-82
2022/11/24 07:59:26;;;;;;;21.50;6.60;;;;;;;;;;5052954;28;20431;-81
2022/11/24 08:01:52;;;;;;;19.98;6.75;;;;;;;;;;5050268;28;20465;-82
2022/11/24 08:04:18;;;;;;;22.90;6.38;;;;;;;;;;5048126;28;20423;-81
2022/11/24 08:06:44;;;;;;;18.48;6.57;;;;;;;;;;5043755;28;20424;-81
2022/11/24 08:09:10;;;;;;;19.42;6.57;;;;;;;;;;5034811;28;20421;-83
2022/11/24 08:11:36;;;;;;;33.67;7.30;;;;;;;;;;5052459;28;20430;-79
2022/11/24 08:14:02;;;;;;;19.27;6.40;;;;;;;;;;5036316;28;20430;-81
2022/11/24 08:16:28;;;;;;;19.02;6.90;;;;;;;;;;5057247;28;20420;-81
2022/11/24 08:18:55;;;;;;;22.08;6.40;;;;;;;;;;5047361;28;20427;-80
2022/11/24 08:21:22;;;;;;;23.45;7.43;;;;;;;;;;5029057;28;20455;-81
2022/11/24 08:23:48;;;;;;;22.08;7.40;;;;;;;;;;5049507;28;20421;-81
2022/11/24 08:26:16;;;;;;;19.80;6.10;;;;;;;;;;5050516;28;20938;-82
2022/11/24 08:28:43;;;;;;;19.75;6.70;;;;;;;;;;5045183;28;20516;-82
2022/11/24 08:31:13;;;;;;;20.30;7.13;;;;;;;;;;5066986;28;20432;-82
2022/11/24 08:33:39;;;;;;;19.98;8.48;;;;;;;;;;5066728;28;20429;-82
2022/11/24 08:36:10;;;;;;;21.88;6.88;;;;;;;;;;5060452;28;20435;-82
2022/11/24 08:38:37;;;;;;;18.40;6.82;;;;;;;;;;5063767;28;20482;-82
2022/11/24 08:41:04;;;;;;;20.48;6.63;;;;;;;;;;5051806;28;20433;-80
2022/11/24 08:43:30;;;;;;;21.27;7.07;;;;;;;;;;5053692;28;20422;-82
2022/11/24 08:46:05;;;;;;;17.90;6.60;;;;;;;;;;5051470;28;20433;-82
2022/11/24 08:48:31;;;;;;;18.15;6.57;;;;;;;;;;5034070;28;20453;-82
2022/11/24 08:50:57;;;;;;;20.98;6.72;;;;;;;;;;5051477;28;20928;-82
2022/11/24 08:53:24;;;;;;;20.17;6.47;;;;;;;;;;5034386;28;20421;-81
2022/11/24 08:55:50;;;;;;;22.37;8.17;;;;;;;;;;5034968;28;20425;-82
2022/11/24 08:58:16;;;;;;;16.20;6.25;;;;;;;;;;5036149;28;20534;-82
2022/11/24 09:00:42;;;;;;;15.02;5.75;;;;;;;;;;5046214;28;20461;-82
2022/11/24 09:03:10;;;;;;;15.98;5.10;;;8.10;99.90;;;;;;5018378;28;20540;-82
2022/11/24 09:05:36;;;;;;;14.38;5.40;;;;;;;;;;5046454;28;20434;-80
2022/11/24 09:08:03;;;;;;;13.65;4.90;;;;;;;;;;5046151;28;20437;-83
2022/11/24 09:10:29;;;;;;;17.63;7.25;;;;;;;;;;5042379;28;20424;-82
2022/11/24 09:12:55;;;;;;;11.43;4.65;;;;;;;;;;5036215;28;20431;-82
2022/11/24 09:15:21;;;;;;;12.30;4.40;;;;;;;;;;5028886;28;20433;-83
2022/11/24 09:17:53;;;;;;;10.95;4.25;;;;;;;;;;5052090;28;20494;-82
2022/11/24 09:20:20;;;;;;;10.77;4.15;;;;;;;;;;5046476;28;20421;-83
2022/11/24 09:22:46;;;;;;;13.15;4.45;;;;;;;;;;5041447;28;20437;-82
2022/11/24 09:25:13;;;;;;;10.90;3.97;;;;;;;;;;5055452;28;20479;-81
2022/11/24 09:27:39;;;;;;;11.77;4.65;;;;;;;;;;5014232;28;20438;-82
2022/11/24 09:30:06;;;;;;;11.65;4.55;;;;;;;;;;5018455;28;20438;-82
2022/11/24 09:32:32;;;;;;;11.80;4.32;;;;;;;;;;5025396;28;20420;-83
2022/11/24 09:34:58;;;;;;;12.30;4.35;;;;;;;;;;5041407;28;20426;-83
2022/11/24 09:37:24;;;;;;;12.95;3.97;;;;;;;;;;5015687;28;20843;-83
2022/11/24 09:39:50;;;;;;;10.98;3.80;;;;;;;;;;5030073;28;20926;-82
2022/11/24 09:42:21;;;;;;;9.32;3.30;;;9.20;99.90;;;;;;5038606;28;20510;-81
2022/11/24 09:44:55;;;;;;;10.37;3.60;;;;;;;;;;5026876;28;20560;-81
2022/11/24 09:47:38;;;;;;;8.93;3.20;;;;;;;;;;5014778;28;20436;-82
2022/11/24 09:50:04;;;;;;;10.82;3.33;;;;;;;;;;5028253;28;20439;-81
2022/11/24 09:52:40;;;;;;;8.88;3.42;;;;;;;;;;5019291;28;20986;-81
2022/11/24 09:55:21;;;;;;;8.00;3.05;;;9.50;99.90;;;;;;5029770;28;20903;-81
2022/11/24 09:57:50;;;;;;;7.68;2.80;;;;;;;;;;5026081;28;20416;-82
2022/11/24 10:00:16;;;;;;;8.00;2.83;;;;;;;;;;5025729;28;20516;-82
2022/11/24 10:02:44;;;;;;;6.93;2.42;;;9.40;99.90;;;;;;5028427;28;20449;-82
2022/11/24 10:05:11;;;;;;;8.77;2.90;;;9.10;99.90;;;;;;5021087;28;20463;-81
2022/11/24 10:07:46;;;;;;;6.65;2.53;;;9.50;99.90;;;;;;5008733;28;20426;-81
2022/11/24 10:10:15;;;;;;;10.52;3.38;;;;;;;;;;5029861;28;20426;-81
2022/11/24 10:12:54;;;;;;;7.45;2.70;;;9.80;99.90;;;;;;5030929;28;20407;-82
2022/11/24 10:15:32;;;;;;;7.43;2.95;;;;;;;;;;5007690;28;20427;-82
2022/11/24 10:17:58;;;;;;;7.70;2.80;;;;;;;;;;5024471;28;20917;-82
2022/11/24 10:20:35;;;;;;;7.60;2.80;;;9.70;99.90;;;;;;5032580;28;20842;-82
2022/11/24 10:23:04;;;;;;;7.70;2.80;;;;;;;;;;5028457;28;20427;-81
2022/11/24 10:25:41;;;;;;;8.25;3.03;;;;;;;;;;5035732;28;20826;-82
2022/11/24 10:28:13;;;;;;;9.02;3.05;;;9.30;99.90;;;;;;4996605;28;20463;-82
2022/11/24 10:30:40;;;;;;;8.05;2.95;;;;;;;;;;5008837;28;20524;-82
2022/11/24 10:33:17;;;;;;;7.28;2.83;;;;;;;;;;5032251;28;20555;-81
2022/11/24 10:35:48;;;;;;;7.05;2.90;;;;;;;;;;5026708;28;20497;-82
2022/11/24 10:38:21;;;;;;;6.57;2.80;;;;;;;;;;5033094;28;20399;-82
2022/11/24 10:41:16;;;;;;;8.48;3.00;;;9.90;99.90;;;;;;5011823;28;20903;-83
2022/11/24 10:43:42;;;;;;;6.78;2.92;;;;;;;;;;4997274;28;20461;-83
2022/11/24 10:46:14;;;;;;;9.48;3.20;;;10.10;99.90;;;;;;5012557;28;20426;-83
2022/11/24 10:49:02;;;;;;;9.25;3.08;;;10.30;99.90;;;;;;5029785;28;20821;-82
2022/11/24 10:51:40;;;;;;;7.97;2.90;;;;;;;;;;5026693;28;20427;-82
2022/11/24 10:54:12;;;;;;;8.95;3.65;;;;;;;;;;5001942;28;20497;-83
2022/11/24 10:56:39;;;;;;;8.70;3.00;;;;;;;;;;5028668;28;20422;-83
2022/11/24 10:59:23;;;;;;;10.23;3.25;;;;;;;;;;5029164;28;20430;-83
2022/11/24 11:01:50;;;;;;;7.05;2.97;;;;;;;;;;5033731;28;20949;-82
2022/11/24 11:04:20;;;;;;;8.03;3.00;;;;;;;;;;5015532;28;20407;-82
2022/11/24 11:06:46;;;;;;;11.50;3.97;;;;;;;;;;5014692;28;20439;-80
2022/11/24 11:09:20;;;;;;;9.80;3.90;;;;;;;;;;5048886;28;20436;-82
2022/11/24 11:11:47;;;;;;;9.00;2.97;;;10.90;99.90;;;;;;5045427;28;20418;-81
2022/11/24 11:14:32;;;;;;;10.75;3.40;;;11.10;99.90;;;;;;5014483;28;20823;-81
2022/11/24 11:16:58;;;;;;;10.63;4.20;;;;;;;;;;5018600;28;20469;-80
2022/11/24 11:19:42;;;;;;;10.20;3.40;;;;;;;;;;5000084;28;20468;-82
2022/11/24 11:22:11;;;;;;;10.10;3.55;;;;;;;;;;5042830;28;20426;-81
2022/11/24 11:24:38;;;;;;;13.00;4.00;;;;;;;;;;5053915;28;20441;-81
2022/11/24 11:27:16;;;;;;;11.45;3.60;;;;;;;;;;5016581;28;20837;-82
2022/11/24 11:29:42;;;;;;;8.57;3.00;;;;;;;;;;5023205;28;20472;-82
2022/11/24 11:32:25;;;;;;;8.80;3.37;;;11.20;99.90;;;;;;5016872;28;20926;-81
2022/11/24 11:34:56;;;;;;;11.77;3.72;;;11.10;99.90;;;;;;5033931;28;20977;-81
2022/11/24 11:37:29;;;;;;;12.68;3.60;;;11.30;99.90;;;;;;5032845;28;20890;-81
2022/11/24 11:39:56;;;;;;;10.80;3.20;;;;;;;;;;5034840;28;20434;-82
2022/11/24 11:42:22;;;;;;;9.33;3.00;;;;;;;;;;5026405;28;20548;-82
2022/11/24 11:44:56;;;;;;;12.38;3.65;;;12.00;99.90;;;;;;5030706;28;20420;-82
2022/11/24 11:47:27;;;;;;;11.20;3.27;;;;;;;;;;5032669;28;20418;-81
2022/11/24 11:49:53;;;;;;;9.73;2.88;;;;;;;;;;5033975;28;20500;-82
2022/11/24 11:52:37;;;;;;;10.27;3.30;;;12.10;99.90;;;;;;5022772;28;20728;-81
2022/11/24 11:55:23;;;;;;;11.75;2.83;;;;;;;;;;5031724;28;20426;-81
2022/11/24 11:58:00;;;;;;;11.50;2.97;;;;;;;;;;5018374;28;20431;-82
2022/11/24 12:00:27;;;;;;;13.48;3.85;;;;;;;;;;5012202;28;20415;-82
2022/11/24 12:02:53;;;;;;;11.98;2.92;;;;;;;;;;5032392;28;20458;-81
2022/11/24 12:05:38;;;;;;;9.68;2.70;;;;;;;;;;5027857;28;20770;-84
2022/11/24 12:08:16;;;;;;;10.15;2.90;;;;;;;;;;5003151;28;20426;-82
2022/11/24 12:11:07;;;;;;;11.68;2.95;;;12.40;99.90;;;;;;5017577;28;20423;-81
2022/11/24 12:13:58;;;;;;;10.55;3.20;;;12.20;99.90;;;;;;5023932;28;20460;-81
2022/11/24 12:16:26;;;;;;;9.60;3.13;;;;;;;;;;5011363;28;20717;-83
2022/11/24 12:19:12;;;;;;;11.23;2.90;;;;;;;;;;5037821;28;20419;-83
2022/11/24 12:21:44;;;;;;;11.73;3.08;;;;;;;;;;5033115;28;20454;-82
2022/11/24 12:24:17;;;;;;;9.45;2.92;;;;;;;;;;5032387;28;20940;-82
2022/11/24 12:26:49;;;;;;;13.80;3.90;;;;;;;;;;5054471;28;20407;-81
2022/11/24 12:29:33;;;;;;;11.67;2.90;;;12.40;99.90;;;;;;5057440;28;20969;-81
2022/11/24 12:32:18;;;;;;;14.10;3.25;;;;;;;;;;5045939;28;20481;-81
2022/11/24 12:34:47;;;;;;;12.95;3.38;;;;;;;;;;5044931;28;20427;-81
2022/11/24 12:37:13;;;;;;;11.55;3.10;;;;;;;;;;5044185;28;20424;-81
2022/11/24 12:40:17;;;;;;;11.13;3.20;;;11.80;99.90;;;;;;5060366;28;20504;-82
2022/11/24 12:42:49;;;;;;;10.20;3.20;;;;;;;;;;4960980;28;20436;-83
2022/11/24 12:45:21;;;;;;;13.83;3.47;;;11.60;99.90;;;;;;5045581;28;20478;-81
2022/11/24 12:47:50;;;;;;;10.05;3.50;;;;;;;;;;5038335;28;20487;-82
2022/11/24 12:50:18;;;;;;;11.43;3.05;;;11.80;99.90;;;;;;5051049;28;20430;-81
2022/11/24 12:52:49;;;;;;;13.02;3.63;;;;;;;;;;5044444;28;20552;-80
2022/11/24 12:55:22;;;;;;;12.98;3.10;;;;;;;;;;5058935;28;20504;-80
2022/11/24 12:57:56;;;;;;;11.80;3.50;;;;;;;;;;5031494;28;20550;-82
2022/11/24 13:00:25;;;;;;;13.03;3.70;;;;;;;;;;5044690;28;20428;-74
2022/11/24 13:03:14;;;;;;;13.70;3.50;;;;;;;;;;5041260;28;20425;-81
2022/11/24 13:05:40;;;;;;;12.00;3.35;;;;;;;;;;5046701;28;20537;-82
2022/11/24 13:08:07;;;;;;;10.77;3.63;;;;;;;;;;5047380;28;20440;-82
2022/11/24 13:10:39;;;;;;;10.45;3.22;;;;;;;;;;5015026;28;20497;-80
2022/11/24 13:13:10;;;;;;;12.38;3.63;;;;;;;;;;5028636;28;20468;-81
2022/11/24 13:15:56;;;;;;;14.57;3.42;;;11.80;99.90;;;;;;5028979;28;20441;-82
2022/11/24 13:18:40;;;;;;;12.00;3.63;;;;;;;;;;5034051;28;20952;-81
2022/11/24 13:21:25;;;;;;;11.88;3.33;;;;;;;;;;5040243;28;20431;-82
2022/11/24 13:23:58;;;;;;;12.95;4.18;;;;;;;;;;5052860;28;20427;-81
2022/11/24 13:26:29;;;;;;;15.35;3.45;;;;;;;;;;5042848;28;20431;-82
2022/11/24 13:28:59;;;;;;;12.07;4.10;;;11.40;99.90;;;;;;5030765;28;20427;-74
2022/11/24 13:31:25;;;;;;;11.55;3.63;;;;;;;;;;5051759;28;20423;-75
2022/11/24 13:33:52;;;;;;;13.52;3.50;;;;;;;;;;5034016;28;20420;-74
2022/11/24 13:36:24;;;;;;;12.05;3.85;;;;;;;;;;5034587;28;20428;-74
2022/11/24 13:38:50;;;;;;;15.00;4.13;;;;;;;;;;5029351;28;20516;-74
2022/11/24 13:41:31;;;;;;;16.50;4.18;;;;;;;;;;5027755;28;20427;-74
2022/11/24 13:44:15;;;;;;;13.15;3.92;;;;;;;;;;5048013;28;20495;-75
2022/11/24 13:47:00;;;;;;;18.98;3.58;;;;;;;;;;5045722;28;20514;-74
2022/11/24 13:49:38;;;;;;;13.00;3.53;;;;;;;;;;5052039;28;20416;-74
2022/11/24 13:52:23;;;;;;;18.13;3.88;;;;;;;;;;5032409;28;20423;-74
2022/11/24 13:54:49;;;;;;;17.83;3.40;;;;;;;;;;5051184;28;20451;-74
2022/11/24 13:57:34;;;;;;;14.60;3.57;;;;;;;;;;5028386;28;20472;-74
2022/11/24 14:00:01;;;;;;;13.75;3.17;;;;;;;;;;5029521;28;20427;-74
2022/11/24 14:02:29;;;;;;;21.85;4.05;;;;;;;;;;5049537;28;20654;-74
2022/11/24 14:04:56;;;;;;;15.52;3.15;;;;;;;;;;5049443;28;20417;-74
2022/11/24 14:07:22;;;;;;;16.38;3.25;;;;;;;;;;5033175;28;20437;-74
2022/11/24 14:09:51;;;;;;;14.27;3.42;;;;;;;;;;5031527;28;20491;-74
2022/11/24 14:12:18;;;;;;;17.83;3.83;;;;;;;;;;5028429;28;20423;-74
2022/11/24 14:14:46;;;;;;;19.50;4.32;;;11.10;99.90;;;;;;5021705;28;20471;-75
2022/11/24 14:17:21;;;;;;;14.63;4.05;;;;;;;;;;5052077;28;20453;-75
2022/11/24 14:19:48;;;;;;;18.60;3.70;;;;;;;;;;5051460;28;20415;-82
2022/11/24 14:22:19;;;;;;;17.23;3.72;;;;;;;;;;5055294;28;20435;-80
2022/11/24 14:24:51;;;;;;;12.27;3.25;;;;;;;;;;5052901;28;20431;-82
2022/11/24 14:27:19;;;;;;;14.82;3.20;;;;;;;;;;5037181;28;20992;-82
2022/11/24 14:29:57;;;;;;;21.30;4.22;;;11.00;99.90;;;;;;5033675;28;20420;-81
2022/11/24 14:32:24;;;;;;;13.87;3.70;;;;;;;;;;5047656;28;20934;-82